sensor_id;sensor_type;location;lat;lon;timestamp;P1;durP1;ratioP1;P2;durP2;ratioP2
80272;SDS011;69574;45.328;9.598;2023-07-31T00:00:45;23.42;;;20.50;;
80272;SDS011;69574;45.328;9.598;2023-07-31T00:03:11;22.23;;;19.92;;
80272;SDS011;69574;45.328;9.598;2023-07-31T00:05:37;23.23;;;20.27;;
80272;SDS011;69574;45.328;9.598;2023-07-31T00:08:03;21.90;;;19.63;;
80272;SDS011;69574;45.328;9.598;2023-07-31T00:10:30;23.40;;;20.92;;
80272;SDS011;69574;45.328;9.598;2023-07-31T00:12:56;21.63;;;19.33;;
80272;SDS011;69574;45.328;9.598;2023-07-31T00:15:22;23.30;;;20.02;;
80272;SDS011;69574;45.328;9.598;2023-07-31T00:17:48;21.35;;;19.15;;
80272;SDS011;69574;45.328;9.598;2023-07-31T00:20:16;22.17;;;19.77;;
80272;SDS011;69574;45.328;9.598;2023-07-31T00:22:42;23.30;;;20.67;;
80272;SDS011;69574;45.328;9.598;2023-07-31T00:25:11;22.80;;;20.55;;
80272;SDS011;69574;45.328;9.598;2023-07-31T00:27:38;22.10;;;19.77;;
80272;SDS011;69574;45.328;9.598;2023-07-31T00:30:07;25.77;;;20.48;;
80272;SDS011;69574;45.328;9.598;2023-07-31T00:32:35;22.23;;;19.92;;
80272;SDS011;69574;45.328;9.598;2023-07-31T00:35:01;22.52;;;19.30;;
80272;SDS011;69574;45.328;9.598;2023-07-31T00:37:33;20.85;;;18.75;;
80272;SDS011;69574;45.328;9.598;2023-07-31T00:40:07;21.50;;;19.20;;
80272;SDS011;69574;45.328;9.598;2023-07-31T00:42:33;20.10;;;17.52;;
80272;SDS011;69574;45.328;9.598;2023-07-31T00:45:00;23.45;;;17.77;;
80272;SDS011;69574;45.328;9.598;2023-07-31T00:47:26;19.65;;;17.65;;
80272;SDS011;69574;45.328;9.598;2023-07-31T00:49:52;19.10;;;17.10;;
80272;SDS011;69574;45.328;9.598;2023-07-31T00:52:17;18.42;;;16.38;;
80272;SDS011;69574;45.328;9.598;2023-07-31T00:54:43;17.85;;;16.00;;
80272;SDS011;69574;45.328;9.598;2023-07-31T00:57:09;17.60;;;15.88;;
80272;SDS011;69574;45.328;9.598;2023-07-31T00:59:35;18.48;;;16.67;;
80272;SDS011;69574;45.328;9.598;2023-07-31T01:02:02;19.15;;;17.15;;
80272;SDS011;69574;45.328;9.598;2023-07-31T01:04:28;18.80;;;15.80;;
80272;SDS011;69574;45.328;9.598;2023-07-31T01:06:56;17.20;;;15.45;;
80272;SDS011;69574;45.328;9.598;2023-07-31T01:09:27;17.95;;;15.70;;
80272;SDS011;69574;45.328;9.598;2023-07-31T01:11:56;16.55;;;14.85;;
80272;SDS011;69574;45.328;9.598;2023-07-31T01:14:22;16.02;;;14.40;;
80272;SDS011;69574;45.328;9.598;2023-07-31T01:16:48;17.70;;;15.48;;
80272;SDS011;69574;45.328;9.598;2023-07-31T01:19:15;17.13;;;15.23;;
80272;SDS011;69574;45.328;9.598;2023-07-31T01:21:57;16.40;;;14.13;;
80272;SDS011;69574;45.328;9.598;2023-07-31T01:24:28;16.60;;;14.88;;
80272;SDS011;69574;45.328;9.598;2023-07-31T01:26:57;16.05;;;14.40;;
80272;SDS011;69574;45.328;9.598;2023-07-31T01:29:26;15.85;;;14.23;;
80272;SDS011;69574;45.328;9.598;2023-07-31T01:31:52;15.15;;;13.07;;
80272;SDS011;69574;45.328;9.598;2023-07-31T01:34:18;16.23;;;13.48;;
80272;SDS011;69574;45.328;9.598;2023-07-31T01:36:45;16.20;;;14.52;;
80272;SDS011;69574;45.328;9.598;2023-07-31T01:39:10;15.20;;;13.60;;
80272;SDS011;69574;45.328;9.598;2023-07-31T01:41:36;14.70;;;12.73;;
80272;SDS011;69574;45.328;9.598;2023-07-31T01:44:04;15.52;;;12.68;;
80272;SDS011;69574;45.328;9.598;2023-07-31T01:46:29;13.60;;;12.20;;
80272;SDS011;69574;45.328;9.598;2023-07-31T01:48:55;14.57;;;12.20;;
80272;SDS011;69574;45.328;9.598;2023-07-31T01:51:21;15.00;;;12.55;;
80272;SDS011;69574;45.328;9.598;2023-07-31T01:53:46;15.05;;;12.88;;
80272;SDS011;69574;45.328;9.598;2023-07-31T01:56:12;13.77;;;12.20;;
80272;SDS011;69574;45.328;9.598;2023-07-31T01:58:38;14.52;;;13.02;;
80272;SDS011;69574;45.328;9.598;2023-07-31T02:01:05;15.40;;;12.68;;
80272;SDS011;69574;45.328;9.598;2023-07-31T02:03:31;16.55;;;13.52;;
80272;SDS011;69574;45.328;9.598;2023-07-31T02:05:57;15.38;;;12.98;;
80272;SDS011;69574;45.328;9.598;2023-07-31T02:08:22;16.33;;;13.73;;
80272;SDS011;69574;45.328;9.598;2023-07-31T02:10:48;15.50;;;13.60;;
80272;SDS011;69574;45.328;9.598;2023-07-31T02:13:14;14.15;;;12.68;;
80272;SDS011;69574;45.328;9.598;2023-07-31T02:15:39;14.43;;;12.68;;
80272;SDS011;69574;45.328;9.598;2023-07-31T02:18:07;13.95;;;12.43;;
80272;SDS011;69574;45.328;9.598;2023-07-31T02:20:33;15.98;;;13.68;;
80272;SDS011;69574;45.328;9.598;2023-07-31T02:22:59;15.02;;;12.75;;
80272;SDS011;69574;45.328;9.598;2023-07-31T02:25:25;14.20;;;12.73;;
80272;SDS011;69574;45.328;9.598;2023-07-31T02:27:50;15.95;;;12.85;;
80272;SDS011;69574;45.328;9.598;2023-07-31T02:30:33;14.25;;;12.80;;
80272;SDS011;69574;45.328;9.598;2023-07-31T02:32:59;14.93;;;13.32;;
80272;SDS011;69574;45.328;9.598;2023-07-31T02:35:27;14.32;;;12.45;;
80272;SDS011;69574;45.328;9.598;2023-07-31T02:37:52;14.07;;;12.48;;
80272;SDS011;69574;45.328;9.598;2023-07-31T02:40:18;14.70;;;13.20;;
80272;SDS011;69574;45.328;9.598;2023-07-31T02:42:44;15.00;;;13.18;;
80272;SDS011;69574;45.328;9.598;2023-07-31T02:45:10;15.40;;;13.90;;
80272;SDS011;69574;45.328;9.598;2023-07-31T02:47:35;15.07;;;13.57;;
80272;SDS011;69574;45.328;9.598;2023-07-31T02:50:01;15.10;;;13.48;;
80272;SDS011;69574;45.328;9.598;2023-07-31T02:52:28;16.00;;;12.82;;
80272;SDS011;69574;45.328;9.598;2023-07-31T02:54:54;14.18;;;12.77;;
80272;SDS011;69574;45.328;9.598;2023-07-31T02:57:19;14.43;;;13.02;;
80272;SDS011;69574;45.328;9.598;2023-07-31T02:59:45;14.52;;;13.02;;
80272;SDS011;69574;45.328;9.598;2023-07-31T03:02:11;15.85;;;14.07;;
80272;SDS011;69574;45.328;9.598;2023-07-31T03:04:37;15.73;;;14.05;;
80272;SDS011;69574;45.328;9.598;2023-07-31T03:07:03;13.80;;;12.40;;
80272;SDS011;69574;45.328;9.598;2023-07-31T03:09:31;14.23;;;12.82;;
80272;SDS011;69574;45.328;9.598;2023-07-31T03:11:58;15.57;;;13.10;;
80272;SDS011;69574;45.328;9.598;2023-07-31T03:14:23;14.73;;;13.02;;
80272;SDS011;69574;45.328;9.598;2023-07-31T03:16:51;15.13;;;13.63;;
80272;SDS011;69574;45.328;9.598;2023-07-31T03:19:17;14.63;;;13.13;;
80272;SDS011;69574;45.328;9.598;2023-07-31T03:21:45;14.98;;;13.25;;
80272;SDS011;69574;45.328;9.598;2023-07-31T03:24:11;13.90;;;12.45;;
80272;SDS011;69574;45.328;9.598;2023-07-31T03:29:04;15.33;;;13.77;;
80272;SDS011;69574;45.328;9.598;2023-07-31T03:31:29;16.10;;;14.35;;
80272;SDS011;69574;45.328;9.598;2023-07-31T03:33:55;15.80;;;14.30;;
80272;SDS011;69574;45.328;9.598;2023-07-31T03:36:20;17.70;;;15.82;;
80272;SDS011;69574;45.328;9.598;2023-07-31T03:38:46;17.10;;;15.27;;
80272;SDS011;69574;45.328;9.598;2023-07-31T03:41:12;18.15;;;14.82;;
80272;SDS011;69574;45.328;9.598;2023-07-31T03:43:37;16.80;;;15.13;;
80272;SDS011;69574;45.328;9.598;2023-07-31T03:46:04;16.83;;;15.23;;
80272;SDS011;69574;45.328;9.598;2023-07-31T03:48:30;16.35;;;14.55;;
80272;SDS011;69574;45.328;9.598;2023-07-31T03:50:56;16.40;;;14.20;;
80272;SDS011;69574;45.328;9.598;2023-07-31T03:53:21;15.45;;;13.85;;
80272;SDS011;69574;45.328;9.598;2023-07-31T03:55:47;15.00;;;13.60;;
80272;SDS011;69574;45.328;9.598;2023-07-31T03:58:13;15.43;;;13.82;;
80272;SDS011;69574;45.328;9.598;2023-07-31T04:00:39;14.70;;;13.20;;
80272;SDS011;69574;45.328;9.598;2023-07-31T04:03:06;13.98;;;12.48;;
80272;SDS011;69574;45.328;9.598;2023-07-31T04:05:32;14.65;;;13.00;;
80272;SDS011;69574;45.328;9.598;2023-07-31T04:07:58;15.88;;;13.82;;
80272;SDS011;69574;45.328;9.598;2023-07-31T04:10:23;14.85;;;13.23;;
80272;SDS011;69574;45.328;9.598;2023-07-31T04:12:49;15.38;;;13.80;;
80272;SDS011;69574;45.328;9.598;2023-07-31T04:15:15;14.82;;;13.32;;
80272;SDS011;69574;45.328;9.598;2023-07-31T04:17:40;15.27;;;13.77;;
80272;SDS011;69574;45.328;9.598;2023-07-31T04:20:08;17.30;;;15.40;;
80272;SDS011;69574;45.328;9.598;2023-07-31T04:22:34;17.25;;;15.50;;
80272;SDS011;69574;45.328;9.598;2023-07-31T04:24:59;18.08;;;16.20;;
80272;SDS011;69574;45.328;9.598;2023-07-31T04:27:25;17.63;;;15.82;;
80272;SDS011;69574;45.328;9.598;2023-07-31T04:29:51;19.17;;;17.13;;
80272;SDS011;69574;45.328;9.598;2023-07-31T04:32:16;19.42;;;17.48;;
80272;SDS011;69574;45.328;9.598;2023-07-31T04:34:42;18.48;;;16.58;;
80272;SDS011;69574;45.328;9.598;2023-07-31T04:37:09;20.15;;;17.60;;
80272;SDS011;69574;45.328;9.598;2023-07-31T04:39:35;19.05;;;17.15;;
80272;SDS011;69574;45.328;9.598;2023-07-31T04:42:00;19.52;;;17.42;;
80272;SDS011;69574;45.328;9.598;2023-07-31T04:44:26;19.67;;;17.77;;
80272;SDS011;69574;45.328;9.598;2023-07-31T04:46:51;20.40;;;18.30;;
80272;SDS011;69574;45.328;9.598;2023-07-31T04:49:17;20.95;;;18.80;;
80272;SDS011;69574;45.328;9.598;2023-07-31T04:51:44;19.50;;;17.60;;
80272;SDS011;69574;45.328;9.598;2023-07-31T04:54:11;19.90;;;17.95;;
80272;SDS011;69574;45.328;9.598;2023-07-31T04:56:40;21.02;;;18.83;;
80272;SDS011;69574;45.328;9.598;2023-07-31T04:59:05;20.15;;;18.00;;
80272;SDS011;69574;45.328;9.598;2023-07-31T05:01:31;20.10;;;17.95;;
80272;SDS011;69574;45.328;9.598;2023-07-31T05:03:56;19.02;;;17.02;;
80272;SDS011;69574;45.328;9.598;2023-07-31T05:06:22;20.38;;;17.70;;
80272;SDS011;69574;45.328;9.598;2023-07-31T05:08:47;19.15;;;17.05;;
80272;SDS011;69574;45.328;9.598;2023-07-31T05:11:15;20.63;;;18.42;;
80272;SDS011;69574;45.328;9.598;2023-07-31T05:13:41;22.77;;;19.73;;
80272;SDS011;69574;45.328;9.598;2023-07-31T05:16:06;23.75;;;21.23;;
80272;SDS011;69574;45.328;9.598;2023-07-31T05:18:32;24.23;;;21.73;;
80272;SDS011;69574;45.328;9.598;2023-07-31T05:20:57;23.92;;;21.52;;
80272;SDS011;69574;45.328;9.598;2023-07-31T05:23:23;22.50;;;20.20;;
80272;SDS011;69574;45.328;9.598;2023-07-31T05:25:49;23.73;;;21.25;;
80272;SDS011;69574;45.328;9.598;2023-07-31T05:28:16;22.88;;;20.48;;
80272;SDS011;69574;45.328;9.598;2023-07-31T05:30:41;23.45;;;19.75;;
80272;SDS011;69574;45.328;9.598;2023-07-31T05:33:07;24.17;;;21.73;;
80272;SDS011;69574;45.328;9.598;2023-07-31T05:35:33;21.55;;;19.30;;
80272;SDS011;69574;45.328;9.598;2023-07-31T05:37:58;21.48;;;19.27;;
80272;SDS011;69574;45.328;9.598;2023-07-31T05:40:24;21.60;;;19.40;;
80272;SDS011;69574;45.328;9.598;2023-07-31T05:42:49;22.35;;;20.15;;
80272;SDS011;69574;45.328;9.598;2023-07-31T05:45:16;23.55;;;21.05;;
80272;SDS011;69574;45.328;9.598;2023-07-31T05:47:42;23.15;;;20.17;;
80272;SDS011;69574;45.328;9.598;2023-07-31T05:50:08;22.48;;;20.27;;
80272;SDS011;69574;45.328;9.598;2023-07-31T05:52:34;22.38;;;20.02;;
80272;SDS011;69574;45.328;9.598;2023-07-31T05:54:59;22.65;;;20.35;;
80272;SDS011;69574;45.328;9.598;2023-07-31T05:57:25;22.95;;;20.58;;
80272;SDS011;69574;45.328;9.598;2023-07-31T05:59:51;24.63;;;22.10;;
80272;SDS011;69574;45.328;9.598;2023-07-31T06:02:20;22.20;;;20.00;;
80272;SDS011;69574;45.328;9.598;2023-07-31T06:04:45;21.02;;;18.90;;
80272;SDS011;69574;45.328;9.598;2023-07-31T06:07:11;22.48;;;20.17;;
80272;SDS011;69574;45.328;9.598;2023-07-31T06:09:37;22.73;;;20.40;;
80272;SDS011;69574;45.328;9.598;2023-07-31T06:12:03;21.58;;;19.42;;
80272;SDS011;69574;45.328;9.598;2023-07-31T06:14:29;20.52;;;18.52;;
80272;SDS011;69574;45.328;9.598;2023-07-31T06:16:54;21.73;;;19.55;;
80272;SDS011;69574;45.328;9.598;2023-07-31T06:19:21;23.08;;;20.08;;
80272;SDS011;69574;45.328;9.598;2023-07-31T06:21:47;20.58;;;18.58;;
80272;SDS011;69574;45.328;9.598;2023-07-31T06:24:13;22.25;;;19.27;;
80272;SDS011;69574;45.328;9.598;2023-07-31T06:26:44;19.58;;;17.65;;
80272;SDS011;69574;45.328;9.598;2023-07-31T06:29:09;21.02;;;18.83;;
80272;SDS011;69574;45.328;9.598;2023-07-31T06:31:35;22.17;;;19.10;;
80272;SDS011;69574;45.328;9.598;2023-07-31T06:34:04;19.02;;;17.23;;
80272;SDS011;69574;45.328;9.598;2023-07-31T06:36:31;20.80;;;18.73;;
80272;SDS011;69574;45.328;9.598;2023-07-31T06:38:56;20.20;;;18.25;;
80272;SDS011;69574;45.328;9.598;2023-07-31T06:41:22;20.23;;;18.13;;
80272;SDS011;69574;45.328;9.598;2023-07-31T06:43:48;19.70;;;17.73;;
80272;SDS011;69574;45.328;9.598;2023-07-31T06:46:14;19.55;;;17.65;;
80272;SDS011;69574;45.328;9.598;2023-07-31T06:48:39;20.27;;;18.27;;
80272;SDS011;69574;45.328;9.598;2023-07-31T06:51:05;19.55;;;17.42;;
80272;SDS011;69574;45.328;9.598;2023-07-31T06:53:32;20.33;;;18.35;;
80272;SDS011;69574;45.328;9.598;2023-07-31T06:55:58;19.13;;;17.13;;
80272;SDS011;69574;45.328;9.598;2023-07-31T06:58:23;19.58;;;17.58;;
80272;SDS011;69574;45.328;9.598;2023-07-31T07:00:49;20.50;;;18.50;;
80272;SDS011;69574;45.328;9.598;2023-07-31T07:03:16;16.80;;;15.10;;
80272;SDS011;69574;45.328;9.598;2023-07-31T07:05:42;18.02;;;15.85;;
80272;SDS011;69574;45.328;9.598;2023-07-31T07:08:07;17.77;;;15.77;;
80272;SDS011;69574;45.328;9.598;2023-07-31T07:10:34;17.98;;;16.27;;
80272;SDS011;69574;45.328;9.598;2023-07-31T07:13:00;17.27;;;15.57;;
80272;SDS011;69574;45.328;9.598;2023-07-31T07:15:27;17.80;;;16.10;;
80272;SDS011;69574;45.328;9.598;2023-07-31T07:17:54;17.40;;;15.48;;
80272;SDS011;69574;45.328;9.598;2023-07-31T07:20:19;18.92;;;16.25;;
80272;SDS011;69574;45.328;9.598;2023-07-31T07:22:45;16.20;;;14.52;;
80272;SDS011;69574;45.328;9.598;2023-07-31T07:25:11;16.42;;;14.65;;
80272;SDS011;69574;45.328;9.598;2023-07-31T07:27:38;17.10;;;15.40;;
80272;SDS011;69574;45.328;9.598;2023-07-31T07:30:04;15.38;;;13.73;;
80272;SDS011;69574;45.328;9.598;2023-07-31T07:34:55;16.02;;;14.45;;
80272;SDS011;69574;45.328;9.598;2023-07-31T07:37:21;16.50;;;14.88;;
80272;SDS011;69574;45.328;9.598;2023-07-31T07:39:47;15.93;;;14.23;;
80272;SDS011;69574;45.328;9.598;2023-07-31T07:42:13;16.48;;;14.82;;
80272;SDS011;69574;45.328;9.598;2023-07-31T07:44:40;17.95;;;16.25;;
80272;SDS011;69574;45.328;9.598;2023-07-31T07:47:05;16.35;;;14.63;;
80272;SDS011;69574;45.328;9.598;2023-07-31T07:49:32;16.20;;;14.50;;
80272;SDS011;69574;45.328;9.598;2023-07-31T07:54:23;15.07;;;13.67;;
80272;SDS011;69574;45.328;9.598;2023-07-31T07:56:48;14.68;;;13.25;;
80272;SDS011;69574;45.328;9.598;2023-07-31T07:59:15;15.13;;;13.52;;
80272;SDS011;69574;45.328;9.598;2023-07-31T08:01:42;17.65;;;14.38;;
80272;SDS011;69574;45.328;9.598;2023-07-31T08:04:08;15.57;;;14.07;;
80272;SDS011;69574;45.328;9.598;2023-07-31T08:06:33;14.00;;;12.55;;
80272;SDS011;69574;45.328;9.598;2023-07-31T08:09:00;14.40;;;12.98;;
80272;SDS011;69574;45.328;9.598;2023-07-31T08:11:31;14.05;;;12.38;;
80272;SDS011;69574;45.328;9.598;2023-07-31T08:13:57;15.35;;;13.75;;
80272;SDS011;69574;45.328;9.598;2023-07-31T08:16:23;14.30;;;12.90;;
80272;SDS011;69574;45.328;9.598;2023-07-31T08:18:50;14.13;;;12.77;;
80272;SDS011;69574;45.328;9.598;2023-07-31T08:21:16;13.45;;;12.02;;
80272;SDS011;69574;45.328;9.598;2023-07-31T08:23:42;14.38;;;12.90;;
80272;SDS011;69574;45.328;9.598;2023-07-31T08:26:07;13.80;;;12.40;;
80272;SDS011;69574;45.328;9.598;2023-07-31T08:28:33;11.23;;;9.98;;
80272;SDS011;69574;45.328;9.598;2023-07-31T08:31:00;10.52;;;9.32;;
80272;SDS011;69574;45.328;9.598;2023-07-31T08:33:26;8.55;;;7.65;;
80272;SDS011;69574;45.328;9.598;2023-07-31T08:38:18;10.10;;;7.47;;
80272;SDS011;69574;45.328;9.598;2023-07-31T08:40:46;9.32;;;7.00;;
80272;SDS011;69574;45.328;9.598;2023-07-31T08:43:20;8.95;;;7.75;;
80272;SDS011;69574;45.328;9.598;2023-07-31T08:45:47;11.18;;;8.40;;
80272;SDS011;69574;45.328;9.598;2023-07-31T08:48:13;9.88;;;8.68;;
80272;SDS011;69574;45.328;9.598;2023-07-31T08:53:04;9.60;;;8.43;;
80272;SDS011;69574;45.328;9.598;2023-07-31T08:55:32;10.40;;;9.32;;
80272;SDS011;69574;45.328;9.598;2023-07-31T08:57:58;8.40;;;7.43;;
80272;SDS011;69574;45.328;9.598;2023-07-31T09:00:24;9.93;;;8.70;;
80272;SDS011;69574;45.328;9.598;2023-07-31T09:02:52;9.90;;;8.50;;
80272;SDS011;69574;45.328;9.598;2023-07-31T09:05:19;8.90;;;7.95;;
80272;SDS011;69574;45.328;9.598;2023-07-31T09:07:46;10.40;;;8.20;;
80272;SDS011;69574;45.328;9.598;2023-07-31T09:10:12;8.52;;;6.65;;
80272;SDS011;69574;45.328;9.598;2023-07-31T09:12:39;7.10;;;6.25;;
80272;SDS011;69574;45.328;9.598;2023-07-31T09:15:05;9.50;;;7.45;;
80272;SDS011;69574;45.328;9.598;2023-07-31T09:17:31;9.20;;;8.07;;
80272;SDS011;69574;45.328;9.598;2023-07-31T09:19:57;9.23;;;8.30;;
80272;SDS011;69574;45.328;9.598;2023-07-31T09:22:31;8.40;;;7.57;;
80272;SDS011;69574;45.328;9.598;2023-07-31T09:24:57;7.78;;;6.88;;
80272;SDS011;69574;45.328;9.598;2023-07-31T09:29:59;11.00;;;8.30;;
80272;SDS011;69574;45.328;9.598;2023-07-31T09:32:25;22.95;;;9.35;;
80272;SDS011;69574;45.328;9.598;2023-07-31T09:34:50;10.18;;;7.75;;
80272;SDS011;69574;45.328;9.598;2023-07-31T09:37:16;8.65;;;6.20;;
80272;SDS011;69574;45.328;9.598;2023-07-31T09:39:46;8.77;;;6.57;;
80272;SDS011;69574;45.328;9.598;2023-07-31T09:42:12;9.02;;;7.10;;
80272;SDS011;69574;45.328;9.598;2023-07-31T09:44:38;7.30;;;6.13;;
80272;SDS011;69574;45.328;9.598;2023-07-31T09:47:07;6.82;;;6.00;;
80272;SDS011;69574;45.328;9.598;2023-07-31T09:49:34;7.85;;;5.78;;
80272;SDS011;69574;45.328;9.598;2023-07-31T09:52:00;6.88;;;6.13;;
80272;SDS011;69574;45.328;9.598;2023-07-31T09:54:26;8.45;;;7.65;;
80272;SDS011;69574;45.328;9.598;2023-07-31T09:56:51;12.43;;;7.07;;
80272;SDS011;69574;45.328;9.598;2023-07-31T09:59:18;9.15;;;7.22;;
80272;SDS011;69574;45.328;9.598;2023-07-31T10:01:45;7.43;;;6.70;;
80272;SDS011;69574;45.328;9.598;2023-07-31T10:04:13;8.43;;;7.50;;
80272;SDS011;69574;45.328;9.598;2023-07-31T10:06:39;8.52;;;7.40;;
80272;SDS011;69574;45.328;9.598;2023-07-31T10:09:06;9.05;;;7.35;;
80272;SDS011;69574;45.328;9.598;2023-07-31T10:11:32;10.05;;;7.95;;
80272;SDS011;69574;45.328;9.598;2023-07-31T10:13:59;9.05;;;7.82;;
80272;SDS011;69574;45.328;9.598;2023-07-31T10:16:25;9.18;;;8.10;;
80272;SDS011;69574;45.328;9.598;2023-07-31T10:18:51;9.52;;;7.55;;
80272;SDS011;69574;45.328;9.598;2023-07-31T10:21:19;7.65;;;6.85;;
80272;SDS011;69574;45.328;9.598;2023-07-31T10:23:44;7.95;;;7.07;;
80272;SDS011;69574;45.328;9.598;2023-07-31T10:26:10;7.68;;;6.88;;
80272;SDS011;69574;45.328;9.598;2023-07-31T10:28:36;8.73;;;7.18;;
80272;SDS011;69574;45.328;9.598;2023-07-31T10:33:28;16.30;;;6.57;;
80272;SDS011;69574;45.328;9.598;2023-07-31T10:38:37;8.65;;;6.20;;
80272;SDS011;69574;45.328;9.598;2023-07-31T10:41:07;6.93;;;5.93;;
80272;SDS011;69574;45.328;9.598;2023-07-31T10:43:33;7.68;;;6.07;;
80272;SDS011;69574;45.328;9.598;2023-07-31T10:45:58;7.85;;;5.47;;
80272;SDS011;69574;45.328;9.598;2023-07-31T10:48:24;8.88;;;5.70;;
80272;SDS011;69574;45.328;9.598;2023-07-31T10:50:50;8.43;;;5.85;;
80272;SDS011;69574;45.328;9.598;2023-07-31T10:55:42;8.65;;;6.28;;
80272;SDS011;69574;45.328;9.598;2023-07-31T10:58:09;6.28;;;5.18;;
80272;SDS011;69574;45.328;9.598;2023-07-31T11:00:36;6.70;;;5.95;;
80272;SDS011;69574;45.328;9.598;2023-07-31T11:03:03;7.18;;;6.47;;
80272;SDS011;69574;45.328;9.598;2023-07-31T11:05:41;7.13;;;6.20;;
80272;SDS011;69574;45.328;9.598;2023-07-31T11:08:11;8.48;;;6.30;;
80272;SDS011;69574;45.328;9.598;2023-07-31T11:10:37;9.75;;;6.68;;
80272;SDS011;69574;45.328;9.598;2023-07-31T11:13:05;8.07;;;6.55;;
80272;SDS011;69574;45.328;9.598;2023-07-31T11:15:30;7.70;;;6.70;;
80272;SDS011;69574;45.328;9.598;2023-07-31T11:17:56;7.20;;;6.07;;
80272;SDS011;69574;45.328;9.598;2023-07-31T11:20:23;8.32;;;5.95;;
80272;SDS011;69574;45.328;9.598;2023-07-31T11:22:49;6.18;;;4.97;;
80272;SDS011;69574;45.328;9.598;2023-07-31T11:25:14;7.13;;;5.40;;
80272;SDS011;69574;45.328;9.598;2023-07-31T11:27:40;6.40;;;5.38;;
80272;SDS011;69574;45.328;9.598;2023-07-31T11:30:08;6.03;;;5.38;;
80272;SDS011;69574;45.328;9.598;2023-07-31T11:32:35;6.78;;;5.15;;
80272;SDS011;69574;45.328;9.598;2023-07-31T11:35:01;9.65;;;5.60;;
80272;SDS011;69574;45.328;9.598;2023-07-31T11:37:38;6.05;;;5.00;;
80272;SDS011;69574;45.328;9.598;2023-07-31T11:40:04;6.47;;;5.78;;
80272;SDS011;69574;45.328;9.598;2023-07-31T11:42:30;8.07;;;6.05;;
80272;SDS011;69574;45.328;9.598;2023-07-31T11:44:55;8.40;;;5.65;;
80272;SDS011;69574;45.328;9.598;2023-07-31T11:47:23;6.93;;;5.78;;
80272;SDS011;69574;45.328;9.598;2023-07-31T11:49:51;6.32;;;5.25;;
80272;SDS011;69574;45.328;9.598;2023-07-31T11:52:16;6.00;;;5.05;;
80272;SDS011;69574;45.328;9.598;2023-07-31T11:54:44;6.57;;;5.07;;
80272;SDS011;69574;45.328;9.598;2023-07-31T11:59:35;7.47;;;5.10;;
80272;SDS011;69574;45.328;9.598;2023-07-31T12:02:01;6.13;;;5.38;;
80272;SDS011;69574;45.328;9.598;2023-07-31T12:04:28;6.88;;;4.55;;
80272;SDS011;69574;45.328;9.598;2023-07-31T12:06:54;5.80;;;4.57;;
80272;SDS011;69574;45.328;9.598;2023-07-31T12:09:20;7.07;;;5.20;;
80272;SDS011;69574;45.328;9.598;2023-07-31T12:11:46;5.15;;;4.65;;
80272;SDS011;69574;45.328;9.598;2023-07-31T12:16:37;7.63;;;5.00;;
80272;SDS011;69574;45.328;9.598;2023-07-31T12:19:03;5.70;;;4.70;;
80272;SDS011;69574;45.328;9.598;2023-07-31T12:21:30;6.20;;;5.13;;
80272;SDS011;69574;45.328;9.598;2023-07-31T12:23:55;8.98;;;5.35;;
80272;SDS011;69574;45.328;9.598;2023-07-31T12:26:21;5.32;;;4.43;;
80272;SDS011;69574;45.328;9.598;2023-07-31T12:28:49;5.90;;;5.07;;
80272;SDS011;69574;45.328;9.598;2023-07-31T12:31:15;6.13;;;5.13;;
80272;SDS011;69574;45.328;9.598;2023-07-31T12:33:42;5.55;;;4.93;;
80272;SDS011;69574;45.328;9.598;2023-07-31T12:38:35;6.50;;;4.50;;
80272;SDS011;69574;45.328;9.598;2023-07-31T12:41:00;6.45;;;4.50;;
80272;SDS011;69574;45.328;9.598;2023-07-31T12:43:26;11.02;;;4.97;;
80272;SDS011;69574;45.328;9.598;2023-07-31T12:45:53;5.97;;;4.78;;
80272;SDS011;69574;45.328;9.598;2023-07-31T12:48:20;4.93;;;4.25;;
80272;SDS011;69574;45.328;9.598;2023-07-31T12:50:46;7.72;;;4.68;;
80272;SDS011;69574;45.328;9.598;2023-07-31T12:55:38;5.80;;;4.47;;
80272;SDS011;69574;45.328;9.598;2023-07-31T12:58:04;6.10;;;4.47;;
80272;SDS011;69574;45.328;9.598;2023-07-31T13:02:55;5.30;;;4.13;;
80272;SDS011;69574;45.328;9.598;2023-07-31T13:07:45;4.67;;;3.37;;
80272;SDS011;69574;45.328;9.598;2023-07-31T13:10:11;6.97;;;4.18;;
80272;SDS011;69574;45.328;9.598;2023-07-31T13:12:38;6.07;;;3.78;;
80272;SDS011;69574;45.328;9.598;2023-07-31T13:15:04;5.53;;;3.83;;
80272;SDS011;69574;45.328;9.598;2023-07-31T13:17:30;5.60;;;3.92;;
80272;SDS011;69574;45.328;9.598;2023-07-31T13:19:56;5.70;;;3.83;;
80272;SDS011;69574;45.328;9.598;2023-07-31T13:22:21;5.95;;;3.70;;
80272;SDS011;69574;45.328;9.598;2023-07-31T13:24:47;5.15;;;3.80;;
80272;SDS011;69574;45.328;9.598;2023-07-31T13:27:13;4.93;;;3.50;;
80272;SDS011;69574;45.328;9.598;2023-07-31T13:29:40;5.30;;;4.03;;
80272;SDS011;69574;45.328;9.598;2023-07-31T13:32:05;4.75;;;3.70;;
80272;SDS011;69574;45.328;9.598;2023-07-31T13:34:31;6.43;;;4.07;;
80272;SDS011;69574;45.328;9.598;2023-07-31T13:36:57;6.15;;;3.83;;
80272;SDS011;69574;45.328;9.598;2023-07-31T13:39:22;5.47;;;3.55;;
80272;SDS011;69574;45.328;9.598;2023-07-31T13:41:48;6.20;;;4.10;;
80272;SDS011;69574;45.328;9.598;2023-07-31T13:44:14;6.15;;;3.70;;
80272;SDS011;69574;45.328;9.598;2023-07-31T13:46:41;4.90;;;3.83;;
80272;SDS011;69574;45.328;9.598;2023-07-31T13:49:07;6.60;;;3.90;;
80272;SDS011;69574;45.328;9.598;2023-07-31T13:51:33;5.55;;;3.72;;
80272;SDS011;69574;45.328;9.598;2023-07-31T13:53:58;5.50;;;3.10;;
80272;SDS011;69574;45.328;9.598;2023-07-31T13:56:24;6.53;;;4.10;;
80272;SDS011;69574;45.328;9.598;2023-07-31T13:58:49;5.03;;;3.83;;
80272;SDS011;69574;45.328;9.598;2023-07-31T14:01:15;4.75;;;3.90;;
80272;SDS011;69574;45.328;9.598;2023-07-31T14:03:43;5.25;;;3.60;;
80272;SDS011;69574;45.328;9.598;2023-07-31T14:06:09;5.85;;;4.53;;
80272;SDS011;69574;45.328;9.598;2023-07-31T14:08:34;5.05;;;4.25;;
80272;SDS011;69574;45.328;9.598;2023-07-31T14:11:00;6.18;;;4.80;;
80272;SDS011;69574;45.328;9.598;2023-07-31T14:15:51;7.13;;;4.27;;
80272;SDS011;69574;45.328;9.598;2023-07-31T14:18:17;6.15;;;4.78;;
80272;SDS011;69574;45.328;9.598;2023-07-31T14:20:44;6.47;;;4.88;;
80272;SDS011;69574;45.328;9.598;2023-07-31T14:23:10;6.15;;;4.47;;
80272;SDS011;69574;45.328;9.598;2023-07-31T14:25:35;6.47;;;5.00;;
80272;SDS011;69574;45.328;9.598;2023-07-31T14:28:01;6.80;;;4.70;;
80272;SDS011;69574;45.328;9.598;2023-07-31T14:30:26;201.18;;;19.73;;
80272;SDS011;69574;45.328;9.598;2023-07-31T14:32:52;5.63;;;4.53;;
80272;SDS011;69574;45.328;9.598;2023-07-31T14:35:18;9.68;;;4.60;;
80272;SDS011;69574;45.328;9.598;2023-07-31T14:40:11;5.93;;;4.60;;
80272;SDS011;69574;45.328;9.598;2023-07-31T14:42:37;8.30;;;4.75;;
80272;SDS011;69574;45.328;9.598;2023-07-31T14:47:28;6.78;;;4.53;;
80272;SDS011;69574;45.328;9.598;2023-07-31T14:52:19;7.80;;;4.57;;
80272;SDS011;69574;45.328;9.598;2023-07-31T14:57:11;5.70;;;4.67;;
80272;SDS011;69574;45.328;9.598;2023-07-31T14:59:37;7.38;;;4.82;;
80272;SDS011;69574;45.328;9.598;2023-07-31T15:04:28;8.63;;;4.40;;
80272;SDS011;69574;45.328;9.598;2023-07-31T15:09:19;7.03;;;4.70;;
80272;SDS011;69574;45.328;9.598;2023-07-31T15:14:11;5.03;;;4.20;;
80272;SDS011;69574;45.328;9.598;2023-07-31T15:16:37;5.60;;;4.50;;
80272;SDS011;69574;45.328;9.598;2023-07-31T15:19:02;6.47;;;4.85;;
80272;SDS011;69574;45.328;9.598;2023-07-31T15:21:28;8.63;;;4.53;;